Weather at John F Kennedy International Airport

Public forecast

Using degrees Fahrenheit for public forecast. Weather courtesy of forecast.io.

Current aviation weather report (METAR) for John F Kennedy International Airport

Retrieved 2022/05/23 08:40 UTC (14 minutes ago):

KJFK 230840Z 32014G21KT 10SM BKN027 OVC130 18/12 A3009 RMK AO2 RAB12E28 P0000 T01830117

Aviation forecast (TAF) for John F Kennedy International Airport

Retrieved 2022/05/23 06:22 UTC (3 hours ago):

TAF KJFK 230520Z 2306/2412 33014G20KT P6SM SCT050 BKN120 FM231400 36011KT P6SM BKN200 FM232200 17005KT P6SM BKN150 FM240000 VRB05KT P6SM BKN150 FM240900 06005KT P6SM BKN150